Fayetteville, GA (30215)

3:41 PM EST on December 04, 2016 (GMT -0500)
Belfair Walk Preserve | | Change Station

Elev 860 ft 33.38 °N, 84.46 °W | Updated 9 seconds ago

Rain
Rain
44.4 °F
Feels Like 42 °F
N
4.9
Wind Variable Wind from ENE
Gusts 9.0 mph

Today
High -- | Low -- °F
--% Chance of Precip.
Yesterday
High -- | Low -- °F
Precip. -- in
Pressure 30.04 in
Visibility 2.5 miles
Clouds Overcast 500 ft
Windchill 42 °F
Dew Point 42 °F
Humidity 93%
Rainfall 0.64 in
Snow Depth Not available.
7:26 AM 5:29 PM
Waxing Crescent, 25% visible
SPECI KFFC 042034Z AUTO 09009KT 2 1/2SM BR OVC005 08/07 A3004 RMK AO2 T00780067
Pressure 30.04 in
Visibility 2.5 miles
Clouds Overcast 500 ft
Windchill 42 °F
Dew Point 42 °F
Humidity 93%
Rainfall 0.64 in
Snow Depth Not available.
7:26 AM 5:29 PM
Waxing Crescent, 25% visible
SPECI KFFC 042034Z AUTO 09009KT 2 1/2SM BR OVC005 08/07 A3004 RMK AO2 T00780067

10-Day Weather Forecast

Almanac

Astronomy

Dec. 04, 2016 Rise Set
Actual Time
Civil Twilight
Nautical Twilight
Astronomical Twilight
Moon
Length of Visible Light
Length of Day
Tomorrow will be .
, % of the Moon is Illuminated

Today's Extremes

State Highs State Lows

Community

WunderPhotos

Upload Photos

1,955,667 photos uploaded!

WunderBlog® & News

Nearby

Air Quality

  Air Quality AQ Index Pollutant
Not available.

Snow Depth

Station Depth Elevation

Earthquake Activity

City Distance Mag. Time & Date
Minimum magnitude displayed is 2.5.

Coastal Water Temperatures

Place Temperature

Stations

Nearby Weather Stations

Station Location Temp. Windchill Dew Point Humidity Wind Precip. Elev Updated Type
                   

Watches & Warnings

There are currently no watches in effect.